sensor_id;sensor_type;location;lat;lon;timestamp;P1;durP1;ratioP1;P2;durP2;ratioP2
9160;SDS011;4615;51.340;8.288;2023-08-07T00:02:14;2.50;;;2.30;;
9160;SDS011;4615;51.340;8.288;2023-08-07T00:04:41;2.47;;;2.28;;
9160;SDS011;4615;51.340;8.288;2023-08-07T00:07:07;2.20;;;2.10;;
9160;SDS011;4615;51.340;8.288;2023-08-07T00:09:33;2.40;;;2.30;;
9160;SDS011;4615;51.340;8.288;2023-08-07T00:12:00;2.70;;;2.50;;
9160;SDS011;4615;51.340;8.288;2023-08-07T00:14:27;2.50;;;2.30;;
9160;SDS011;4615;51.340;8.288;2023-08-07T00:16:54;2.40;;;2.20;;
9160;SDS011;4615;51.340;8.288;2023-08-07T00:19:20;2.75;;;2.38;;
9160;SDS011;4615;51.340;8.288;2023-08-07T00:21:46;2.55;;;2.35;;
9160;SDS011;4615;51.340;8.288;2023-08-07T00:24:13;3.00;;;2.47;;
9160;SDS011;4615;51.340;8.288;2023-08-07T00:26:39;2.67;;;2.47;;
9160;SDS011;4615;51.340;8.288;2023-08-07T00:29:06;2.65;;;2.45;;
9160;SDS011;4615;51.340;8.288;2023-08-07T00:31:33;2.75;;;2.55;;
9160;SDS011;4615;51.340;8.288;2023-08-07T00:34:00;2.80;;;2.50;;
9160;SDS011;4615;51.340;8.288;2023-08-07T00:36:27;2.63;;;2.42;;
9160;SDS011;4615;51.340;8.288;2023-08-07T00:38:54;2.55;;;2.35;;
9160;SDS011;4615;51.340;8.288;2023-08-07T00:41:20;2.30;;;2.10;;
9160;SDS011;4615;51.340;8.288;2023-08-07T00:43:47;2.40;;;2.20;;
9160;SDS011;4615;51.340;8.288;2023-08-07T00:46:14;2.30;;;2.10;;
9160;SDS011;4615;51.340;8.288;2023-08-07T00:48:41;2.03;;;1.92;;
9160;SDS011;4615;51.340;8.288;2023-08-07T00:51:08;2.35;;;2.15;;
9160;SDS011;4615;51.340;8.288;2023-08-07T00:53:38;2.00;;;1.90;;
9160;SDS011;4615;51.340;8.288;2023-08-07T00:56:04;1.95;;;1.85;;
9160;SDS011;4615;51.340;8.288;2023-08-07T00:58:31;2.55;;;1.63;;
9160;SDS011;4615;51.340;8.288;2023-08-07T01:00:57;1.73;;;1.60;;
9160;SDS011;4615;51.340;8.288;2023-08-07T01:03:24;2.10;;;1.45;;
9160;SDS011;4615;51.340;8.288;2023-08-07T01:05:52;1.40;;;1.30;;
9160;SDS011;4615;51.340;8.288;2023-08-07T01:08:18;1.38;;;1.27;;
9160;SDS011;4615;51.340;8.288;2023-08-07T01:10:53;1.60;;;1.40;;
9160;SDS011;4615;51.340;8.288;2023-08-07T01:13:28;1.57;;;1.33;;
9160;SDS011;4615;51.340;8.288;2023-08-07T01:15:55;1.30;;;1.20;;
9160;SDS011;4615;51.340;8.288;2023-08-07T01:18:22;1.30;;;1.20;;
9160;SDS011;4615;51.340;8.288;2023-08-07T01:20:48;1.30;;;1.20;;
9160;SDS011;4615;51.340;8.288;2023-08-07T01:23:16;1.17;;;1.08;;
9160;SDS011;4615;51.340;8.288;2023-08-07T01:25:42;1.15;;;1.15;;
9160;SDS011;4615;51.340;8.288;2023-08-07T01:28:11;2.03;;;1.10;;
9160;SDS011;4615;51.340;8.288;2023-08-07T01:30:42;1.08;;;0.98;;
9160;SDS011;4615;51.340;8.288;2023-08-07T01:33:10;0.70;;;0.70;;
9160;SDS011;4615;51.340;8.288;2023-08-07T01:35:40;0.88;;;0.88;;
9160;SDS011;4615;51.340;8.288;2023-08-07T01:38:07;0.90;;;0.90;;
9160;SDS011;4615;51.340;8.288;2023-08-07T01:40:35;1.33;;;0.80;;
9160;SDS011;4615;51.340;8.288;2023-08-07T01:43:02;0.70;;;0.70;;
9160;SDS011;4615;51.340;8.288;2023-08-07T01:45:28;0.90;;;0.90;;
9160;SDS011;4615;51.340;8.288;2023-08-07T01:47:55;0.75;;;0.75;;
9160;SDS011;4615;51.340;8.288;2023-08-07T01:50:21;0.80;;;0.80;;
9160;SDS011;4615;51.340;8.288;2023-08-07T01:52:48;0.82;;;0.82;;
9160;SDS011;4615;51.340;8.288;2023-08-07T01:55:15;0.85;;;0.80;;
9160;SDS011;4615;51.340;8.288;2023-08-07T01:57:43;0.70;;;0.70;;
9160;SDS011;4615;51.340;8.288;2023-08-07T02:00:10;1.10;;;1.00;;
9160;SDS011;4615;51.340;8.288;2023-08-07T02:02:37;0.70;;;0.70;;
9160;SDS011;4615;51.340;8.288;2023-08-07T02:05:03;0.70;;;0.70;;
9160;SDS011;4615;51.340;8.288;2023-08-07T02:07:30;0.80;;;0.80;;
9160;SDS011;4615;51.340;8.288;2023-08-07T02:09:56;0.60;;;0.60;;
9160;SDS011;4615;51.340;8.288;2023-08-07T02:12:23;0.90;;;0.73;;
9160;SDS011;4615;51.340;8.288;2023-08-07T02:14:51;0.70;;;0.70;;
9160;SDS011;4615;51.340;8.288;2023-08-07T02:17:17;0.70;;;0.70;;
9160;SDS011;4615;51.340;8.288;2023-08-07T02:19:43;0.90;;;0.68;;
9160;SDS011;4615;51.340;8.288;2023-08-07T02:22:10;0.60;;;0.60;;
9160;SDS011;4615;51.340;8.288;2023-08-07T02:24:36;0.70;;;0.70;;
9160;SDS011;4615;51.340;8.288;2023-08-07T02:27:03;0.60;;;0.60;;
9160;SDS011;4615;51.340;8.288;2023-08-07T02:29:29;0.60;;;0.60;;
9160;SDS011;4615;51.340;8.288;2023-08-07T02:32:01;0.75;;;0.75;;
9160;SDS011;4615;51.340;8.288;2023-08-07T02:34:27;0.60;;;0.60;;
9160;SDS011;4615;51.340;8.288;2023-08-07T02:36:54;0.63;;;0.63;;
9160;SDS011;4615;51.340;8.288;2023-08-07T02:39:20;0.70;;;0.68;;
9160;SDS011;4615;51.340;8.288;2023-08-07T02:41:46;0.70;;;0.70;;
9160;SDS011;4615;51.340;8.288;2023-08-07T02:44:13;0.52;;;0.52;;
9160;SDS011;4615;51.340;8.288;2023-08-07T02:46:39;0.70;;;0.70;;
9160;SDS011;4615;51.340;8.288;2023-08-07T02:49:07;0.70;;;0.70;;
9160;SDS011;4615;51.340;8.288;2023-08-07T02:51:34;0.70;;;0.70;;
9160;SDS011;4615;51.340;8.288;2023-08-07T02:54:00;0.80;;;0.80;;
9160;SDS011;4615;51.340;8.288;2023-08-07T02:56:27;1.10;;;1.00;;
9160;SDS011;4615;51.340;8.288;2023-08-07T02:58:53;0.90;;;0.90;;
9160;SDS011;4615;51.340;8.288;2023-08-07T03:01:20;0.90;;;0.90;;
9160;SDS011;4615;51.340;8.288;2023-08-07T03:03:46;0.90;;;0.90;;
9160;SDS011;4615;51.340;8.288;2023-08-07T03:06:14;1.00;;;1.00;;
9160;SDS011;4615;51.340;8.288;2023-08-07T03:08:40;1.00;;;1.00;;
9160;SDS011;4615;51.340;8.288;2023-08-07T03:11:07;1.15;;;1.10;;
9160;SDS011;4615;51.340;8.288;2023-08-07T03:13:34;1.20;;;1.20;;
9160;SDS011;4615;51.340;8.288;2023-08-07T03:16:00;1.10;;;1.10;;
9160;SDS011;4615;51.340;8.288;2023-08-07T03:18:27;1.40;;;1.30;;
9160;SDS011;4615;51.340;8.288;2023-08-07T03:20:54;1.30;;;1.20;;
9160;SDS011;4615;51.340;8.288;2023-08-07T03:23:22;1.30;;;1.20;;
9160;SDS011;4615;51.340;8.288;2023-08-07T03:25:48;1.60;;;1.50;;
9160;SDS011;4615;51.340;8.288;2023-08-07T03:28:14;1.70;;;1.60;;
9160;SDS011;4615;51.340;8.288;2023-08-07T03:30:41;1.70;;;1.60;;
9160;SDS011;4615;51.340;8.288;2023-08-07T03:33:07;1.90;;;1.80;;
9160;SDS011;4615;51.340;8.288;2023-08-07T03:35:33;2.20;;;2.00;;
9160;SDS011;4615;51.340;8.288;2023-08-07T03:38:00;2.25;;;2.15;;
9160;SDS011;4615;51.340;8.288;2023-08-07T03:40:27;3.00;;;2.58;;
9160;SDS011;4615;51.340;8.288;2023-08-07T03:42:54;2.80;;;2.60;;
9160;SDS011;4615;51.340;8.288;2023-08-07T03:45:20;2.97;;;2.78;;
9160;SDS011;4615;51.340;8.288;2023-08-07T03:47:46;2.90;;;2.70;;
9160;SDS011;4615;51.340;8.288;2023-08-07T03:50:13;2.90;;;2.70;;
9160;SDS011;4615;51.340;8.288;2023-08-07T03:52:39;2.73;;;2.53;;
9160;SDS011;4615;51.340;8.288;2023-08-07T03:55:06;3.10;;;2.80;;
9160;SDS011;4615;51.340;8.288;2023-08-07T03:57:34;3.30;;;3.00;;
9160;SDS011;4615;51.340;8.288;2023-08-07T04:00:00;3.40;;;2.92;;
9160;SDS011;4615;51.340;8.288;2023-08-07T04:02:28;2.60;;;2.40;;
9160;SDS011;4615;51.340;8.288;2023-08-07T04:04:55;2.50;;;2.30;;
9160;SDS011;4615;51.340;8.288;2023-08-07T04:07:21;3.30;;;2.40;;
9160;SDS011;4615;51.340;8.288;2023-08-07T04:09:48;2.00;;;1.90;;
9160;SDS011;4615;51.340;8.288;2023-08-07T04:12:14;2.75;;;2.10;;
9160;SDS011;4615;51.340;8.288;2023-08-07T04:14:42;1.98;;;1.88;;
9160;SDS011;4615;51.340;8.288;2023-08-07T04:17:08;1.80;;;1.70;;
9160;SDS011;4615;51.340;8.288;2023-08-07T04:19:34;1.90;;;1.80;;
9160;SDS011;4615;51.340;8.288;2023-08-07T04:22:01;2.10;;;1.90;;
9160;SDS011;4615;51.340;8.288;2023-08-07T04:24:27;2.10;;;1.90;;
9160;SDS011;4615;51.340;8.288;2023-08-07T04:26:53;1.80;;;1.70;;
9160;SDS011;4615;51.340;8.288;2023-08-07T04:29:20;1.88;;;1.77;;
9160;SDS011;4615;51.340;8.288;2023-08-07T04:31:47;1.83;;;1.73;;
9160;SDS011;4615;51.340;8.288;2023-08-07T04:34:14;1.50;;;1.40;;
9160;SDS011;4615;51.340;8.288;2023-08-07T04:36:40;1.60;;;1.50;;
9160;SDS011;4615;51.340;8.288;2023-08-07T04:39:06;1.50;;;1.40;;
9160;SDS011;4615;51.340;8.288;2023-08-07T04:41:33;1.40;;;1.30;;
9160;SDS011;4615;51.340;8.288;2023-08-07T04:44:00;1.70;;;1.60;;
9160;SDS011;4615;51.340;8.288;2023-08-07T04:46:26;1.50;;;1.40;;
9160;SDS011;4615;51.340;8.288;2023-08-07T04:48:54;2.20;;;1.70;;
9160;SDS011;4615;51.340;8.288;2023-08-07T04:51:20;1.60;;;1.50;;
9160;SDS011;4615;51.340;8.288;2023-08-07T04:53:47;1.70;;;1.60;;
9160;SDS011;4615;51.340;8.288;2023-08-07T04:56:15;1.92;;;1.83;;
9160;SDS011;4615;51.340;8.288;2023-08-07T04:58:42;2.00;;;1.80;;
9160;SDS011;4615;51.340;8.288;2023-08-07T05:01:08;2.00;;;1.90;;
9160;SDS011;4615;51.340;8.288;2023-08-07T05:03:35;2.20;;;2.00;;
9160;SDS011;4615;51.340;8.288;2023-08-07T05:06:02;2.05;;;1.92;;
9160;SDS011;4615;51.340;8.288;2023-08-07T05:08:29;2.10;;;2.00;;
9160;SDS011;4615;51.340;8.288;2023-08-07T05:10:55;2.00;;;1.90;;
9160;SDS011;4615;51.340;8.288;2023-08-07T05:13:21;2.00;;;1.90;;
9160;SDS011;4615;51.340;8.288;2023-08-07T05:15:48;1.90;;;1.70;;
9160;SDS011;4615;51.340;8.288;2023-08-07T05:18:14;2.95;;;2.10;;
9160;SDS011;4615;51.340;8.288;2023-08-07T05:20:41;2.50;;;2.10;;
9160;SDS011;4615;51.340;8.288;2023-08-07T05:23:09;2.88;;;2.10;;
9160;SDS011;4615;51.340;8.288;2023-08-07T05:25:35;2.42;;;2.00;;
9160;SDS011;4615;51.340;8.288;2023-08-07T05:28:02;2.42;;;2.22;;
9160;SDS011;4615;51.340;8.288;2023-08-07T05:30:28;2.13;;;1.92;;
9160;SDS011;4615;51.340;8.288;2023-08-07T05:32:55;2.85;;;2.20;;
9160;SDS011;4615;51.340;8.288;2023-08-07T05:35:21;2.65;;;2.25;;
9160;SDS011;4615;51.340;8.288;2023-08-07T05:37:47;2.78;;;2.30;;
9160;SDS011;4615;51.340;8.288;2023-08-07T05:40:15;3.50;;;2.80;;
9160;SDS011;4615;51.340;8.288;2023-08-07T05:42:41;3.58;;;3.05;;
9160;SDS011;4615;51.340;8.288;2023-08-07T05:45:08;3.63;;;3.33;;
9160;SDS011;4615;51.340;8.288;2023-08-07T05:47:35;4.47;;;4.07;;
9160;SDS011;4615;51.340;8.288;2023-08-07T05:50:02;5.35;;;4.20;;
9160;SDS011;4615;51.340;8.288;2023-08-07T05:52:28;4.63;;;4.22;;
9160;SDS011;4615;51.340;8.288;2023-08-07T05:54:55;4.38;;;3.97;;
9160;SDS011;4615;51.340;8.288;2023-08-07T05:57:22;4.78;;;4.38;;
9160;SDS011;4615;51.340;8.288;2023-08-07T05:59:49;4.53;;;4.13;;
9160;SDS011;4615;51.340;8.288;2023-08-07T06:02:15;5.18;;;4.45;;
9160;SDS011;4615;51.340;8.288;2023-08-07T06:04:41;5.30;;;4.80;;
9160;SDS011;4615;51.340;8.288;2023-08-07T06:07:08;5.00;;;4.60;;
9160;SDS011;4615;51.340;8.288;2023-08-07T06:09:34;5.20;;;4.80;;
9160;SDS011;4615;51.340;8.288;2023-08-07T06:12:01;5.50;;;5.00;;
9160;SDS011;4615;51.340;8.288;2023-08-07T06:14:29;4.90;;;4.50;;
9160;SDS011;4615;51.340;8.288;2023-08-07T06:16:55;5.30;;;4.80;;
9160;SDS011;4615;51.340;8.288;2023-08-07T06:19:23;5.47;;;4.97;;
9160;SDS011;4615;51.340;8.288;2023-08-07T06:21:49;5.07;;;4.65;;
9160;SDS011;4615;51.340;8.288;2023-08-07T06:24:16;5.28;;;4.70;;
9160;SDS011;4615;51.340;8.288;2023-08-07T06:26:42;5.20;;;4.70;;
9160;SDS011;4615;51.340;8.288;2023-08-07T06:29:08;5.25;;;4.85;;
9160;SDS011;4615;51.340;8.288;2023-08-07T06:31:36;5.70;;;5.10;;
9160;SDS011;4615;51.340;8.288;2023-08-07T06:34:02;5.47;;;4.97;;
9160;SDS011;4615;51.340;8.288;2023-08-07T06:36:29;5.00;;;4.60;;
9160;SDS011;4615;51.340;8.288;2023-08-07T06:38:55;5.57;;;5.07;;
9160;SDS011;4615;51.340;8.288;2023-08-07T06:41:21;5.03;;;4.63;;
9160;SDS011;4615;51.340;8.288;2023-08-07T06:43:48;4.80;;;4.40;;
9160;SDS011;4615;51.340;8.288;2023-08-07T06:46:14;4.90;;;4.50;;
9160;SDS011;4615;51.340;8.288;2023-08-07T06:48:42;4.60;;;4.20;;
9160;SDS011;4615;51.340;8.288;2023-08-07T06:51:08;5.00;;;4.55;;
9160;SDS011;4615;51.340;8.288;2023-08-07T06:53:35;5.00;;;4.60;;
9160;SDS011;4615;51.340;8.288;2023-08-07T06:56:01;4.70;;;4.30;;
9160;SDS011;4615;51.340;8.288;2023-08-07T06:58:28;4.63;;;4.32;;
9160;SDS011;4615;51.340;8.288;2023-08-07T07:00:55;3.90;;;3.60;;
9160;SDS011;4615;51.340;8.288;2023-08-07T07:03:21;3.60;;;3.30;;
9160;SDS011;4615;51.340;8.288;2023-08-07T07:05:50;3.97;;;3.57;;
9160;SDS011;4615;51.340;8.288;2023-08-07T07:08:16;3.25;;;2.95;;
9160;SDS011;4615;51.340;8.288;2023-08-07T07:10:42;3.10;;;2.80;;
9160;SDS011;4615;51.340;8.288;2023-08-07T07:13:09;2.78;;;2.58;;
9160;SDS011;4615;51.340;8.288;2023-08-07T07:15:35;3.45;;;2.70;;
9160;SDS011;4615;51.340;8.288;2023-08-07T07:18:01;2.85;;;2.40;;
9160;SDS011;4615;51.340;8.288;2023-08-07T07:20:28;2.60;;;2.40;;
9160;SDS011;4615;51.340;8.288;2023-08-07T07:22:56;2.45;;;2.25;;
9160;SDS011;4615;51.340;8.288;2023-08-07T07:25:22;2.30;;;2.10;;
9160;SDS011;4615;51.340;8.288;2023-08-07T07:27:48;2.10;;;1.90;;
9160;SDS011;4615;51.340;8.288;2023-08-07T07:30:15;1.93;;;1.70;;
9160;SDS011;4615;51.340;8.288;2023-08-07T07:32:41;1.88;;;1.77;;
9160;SDS011;4615;51.340;8.288;2023-08-07T07:35:08;1.60;;;1.50;;
9160;SDS011;4615;51.340;8.288;2023-08-07T07:37:34;1.80;;;1.70;;
9160;SDS011;4615;51.340;8.288;2023-08-07T07:40:02;1.60;;;1.50;;
9160;SDS011;4615;51.340;8.288;2023-08-07T07:42:28;1.70;;;1.60;;
9160;SDS011;4615;51.340;8.288;2023-08-07T07:44:55;2.42;;;2.22;;
9160;SDS011;4615;51.340;8.288;2023-08-07T07:47:21;1.70;;;1.60;;
9160;SDS011;4615;51.340;8.288;2023-08-07T07:49:47;1.60;;;1.50;;
9160;SDS011;4615;51.340;8.288;2023-08-07T07:52:14;1.80;;;1.70;;
9160;SDS011;4615;51.340;8.288;2023-08-07T07:54:40;1.90;;;1.70;;
9160;SDS011;4615;51.340;8.288;2023-08-07T07:57:08;2.00;;;1.90;;
9160;SDS011;4615;51.340;8.288;2023-08-07T07:59:35;2.13;;;2.00;;
9160;SDS011;4615;51.340;8.288;2023-08-07T08:02:02;2.10;;;2.00;;
9160;SDS011;4615;51.340;8.288;2023-08-07T08:04:28;2.00;;;1.90;;
9160;SDS011;4615;51.340;8.288;2023-08-07T08:06:54;2.00;;;1.90;;
9160;SDS011;4615;51.340;8.288;2023-08-07T08:09:21;2.10;;;1.90;;
9160;SDS011;4615;51.340;8.288;2023-08-07T08:11:47;2.63;;;2.13;;
9160;SDS011;4615;51.340;8.288;2023-08-07T08:14:15;2.63;;;2.42;;
9160;SDS011;4615;51.340;8.288;2023-08-07T08:16:41;2.70;;;2.50;;
9160;SDS011;4615;51.340;8.288;2023-08-07T08:19:08;3.75;;;3.40;;
9160;SDS011;4615;51.340;8.288;2023-08-07T08:21:34;4.25;;;3.95;;
9160;SDS011;4615;51.340;8.288;2023-08-07T08:24:01;4.70;;;4.30;;
9160;SDS011;4615;51.340;8.288;2023-08-07T08:26:27;4.65;;;4.25;;
9160;SDS011;4615;51.340;8.288;2023-08-07T08:28:54;4.38;;;3.97;;
9160;SDS011;4615;51.340;8.288;2023-08-07T08:31:22;4.82;;;4.43;;
9160;SDS011;4615;51.340;8.288;2023-08-07T08:33:49;5.75;;;5.25;;
9160;SDS011;4615;51.340;8.288;2023-08-07T08:36:15;5.95;;;5.22;;
9160;SDS011;4615;51.340;8.288;2023-08-07T08:38:42;5.10;;;4.70;;
9160;SDS011;4615;51.340;8.288;2023-08-07T08:41:10;5.40;;;4.90;;
9160;SDS011;4615;51.340;8.288;2023-08-07T08:43:36;5.40;;;5.00;;
9160;SDS011;4615;51.340;8.288;2023-08-07T08:46:04;5.57;;;5.07;;
9160;SDS011;4615;51.340;8.288;2023-08-07T08:48:32;5.60;;;5.10;;
9160;SDS011;4615;51.340;8.288;2023-08-07T08:51:00;5.57;;;5.07;;
9160;SDS011;4615;51.340;8.288;2023-08-07T08:53:28;5.32;;;4.82;;
9160;SDS011;4615;51.340;8.288;2023-08-07T08:55:55;5.53;;;4.97;;
9160;SDS011;4615;51.340;8.288;2023-08-07T08:58:21;5.72;;;4.80;;
9160;SDS011;4615;51.340;8.288;2023-08-07T09:00:49;4.60;;;4.20;;
9160;SDS011;4615;51.340;8.288;2023-08-07T09:03:16;3.53;;;3.30;;
9160;SDS011;4615;51.340;8.288;2023-08-07T09:05:44;3.63;;;3.33;;
9160;SDS011;4615;51.340;8.288;2023-08-07T09:08:11;2.90;;;2.70;;
9160;SDS011;4615;51.340;8.288;2023-08-07T09:10:38;2.97;;;2.45;;
9160;SDS011;4615;51.340;8.288;2023-08-07T09:13:05;2.40;;;2.20;;
9160;SDS011;4615;51.340;8.288;2023-08-07T09:15:35;2.45;;;2.25;;
9160;SDS011;4615;51.340;8.288;2023-08-07T09:18:02;2.53;;;2.30;;
9160;SDS011;4615;51.340;8.288;2023-08-07T09:20:32;2.53;;;2.25;;
9160;SDS011;4615;51.340;8.288;2023-08-07T09:23:00;2.30;;;2.10;;
9160;SDS011;4615;51.340;8.288;2023-08-07T09:25:27;2.10;;;2.00;;
9160;SDS011;4615;51.340;8.288;2023-08-07T09:27:54;2.15;;;2.03;;
9160;SDS011;4615;51.340;8.288;2023-08-07T09:30:21;1.98;;;1.77;;
9160;SDS011;4615;51.340;8.288;2023-08-07T09:32:47;1.80;;;1.70;;
9160;SDS011;4615;51.340;8.288;2023-08-07T09:35:14;2.03;;;1.83;;
9160;SDS011;4615;51.340;8.288;2023-08-07T09:37:41;3.30;;;2.10;;
9160;SDS011;4615;51.340;8.288;2023-08-07T09:40:10;3.15;;;2.20;;
9160;SDS011;4615;51.340;8.288;2023-08-07T09:42:40;2.22;;;2.03;;
9160;SDS011;4615;51.340;8.288;2023-08-07T09:45:18;2.28;;;2.08;;
9160;SDS011;4615;51.340;8.288;2023-08-07T09:47:45;3.30;;;2.33;;
9160;SDS011;4615;51.340;8.288;2023-08-07T09:50:15;3.83;;;2.20;;
9160;SDS011;4615;51.340;8.288;2023-08-07T09:52:41;2.40;;;2.20;;
9160;SDS011;4615;51.340;8.288;2023-08-07T09:55:08;3.92;;;2.40;;
9160;SDS011;4615;51.340;8.288;2023-08-07T09:57:35;4.60;;;2.30;;
9160;SDS011;4615;51.340;8.288;2023-08-07T10:00:02;3.83;;;2.40;;
9160;SDS011;4615;51.340;8.288;2023-08-07T10:02:36;2.83;;;2.42;;
9160;SDS011;4615;51.340;8.288;2023-08-07T10:05:03;3.97;;;2.30;;
9160;SDS011;4615;51.340;8.288;2023-08-07T10:07:30;4.18;;;2.40;;
9160;SDS011;4615;51.340;8.288;2023-08-07T10:09:57;3.30;;;2.53;;
9160;SDS011;4615;51.340;8.288;2023-08-07T10:12:24;5.25;;;2.58;;
9160;SDS011;4615;51.340;8.288;2023-08-07T10:14:53;6.28;;;2.83;;
9160;SDS011;4615;51.340;8.288;2023-08-07T10:17:20;7.38;;;3.10;;
9160;SDS011;4615;51.340;8.288;2023-08-07T10:19:47;5.68;;;3.60;;
9160;SDS011;4615;51.340;8.288;2023-08-07T10:22:14;4.57;;;2.80;;
9160;SDS011;4615;51.340;8.288;2023-08-07T10:24:41;4.38;;;2.67;;
9160;SDS011;4615;51.340;8.288;2023-08-07T10:27:08;3.55;;;3.10;;
9160;SDS011;4615;51.340;8.288;2023-08-07T10:29:35;3.90;;;2.75;;
9160;SDS011;4615;51.340;8.288;2023-08-07T10:32:04;4.00;;;2.63;;
9160;SDS011;4615;51.340;8.288;2023-08-07T10:34:32;4.13;;;2.50;;
9160;SDS011;4615;51.340;8.288;2023-08-07T10:36:59;6.70;;;3.17;;
9160;SDS011;4615;51.340;8.288;2023-08-07T10:39:25;5.45;;;3.35;;
9160;SDS011;4615;51.340;8.288;2023-08-07T10:41:52;5.72;;;2.95;;
9160;SDS011;4615;51.340;8.288;2023-08-07T10:44:19;5.47;;;3.10;;
9160;SDS011;4615;51.340;8.288;2023-08-07T10:46:46;4.75;;;2.70;;
9160;SDS011;4615;51.340;8.288;2023-08-07T10:49:16;5.82;;;3.47;;
9160;SDS011;4615;51.340;8.288;2023-08-07T10:51:55;5.32;;;2.90;;
9160;SDS011;4615;51.340;8.288;2023-08-07T10:54:23;6.35;;;3.17;;
9160;SDS011;4615;51.340;8.288;2023-08-07T10:56:52;6.00;;;2.80;;
9160;SDS011;4615;51.340;8.288;2023-08-07T10:59:18;6.53;;;3.42;;
9160;SDS011;4615;51.340;8.288;2023-08-07T11:01:48;6.43;;;3.50;;
9160;SDS011;4615;51.340;8.288;2023-08-07T11:04:17;8.07;;;3.47;;
9160;SDS011;4615;51.340;8.288;2023-08-07T11:06:48;6.88;;;3.60;;
9160;SDS011;4615;51.340;8.288;2023-08-07T11:09:14;7.88;;;3.80;;
9160;SDS011;4615;51.340;8.288;2023-08-07T11:11:41;7.63;;;3.40;;
9160;SDS011;4615;51.340;8.288;2023-08-07T11:14:08;6.15;;;3.00;;
9160;SDS011;4615;51.340;8.288;2023-08-07T11:16:35;7.22;;;3.33;;
9160;SDS011;4615;51.340;8.288;2023-08-07T11:19:01;6.50;;;3.20;;
9160;SDS011;4615;51.340;8.288;2023-08-07T11:21:29;6.57;;;2.97;;
9160;SDS011;4615;51.340;8.288;2023-08-07T11:23:56;5.28;;;3.20;;
9160;SDS011;4615;51.340;8.288;2023-08-07T11:26:22;5.43;;;3.20;;
9160;SDS011;4615;51.340;8.288;2023-08-07T11:28:51;7.95;;;3.60;;
9160;SDS011;4615;51.340;8.288;2023-08-07T11:31:17;6.93;;;3.50;;
9160;SDS011;4615;51.340;8.288;2023-08-07T11:33:44;6.30;;;3.83;;
9160;SDS011;4615;51.340;8.288;2023-08-07T11:36:10;4.70;;;3.17;;
9160;SDS011;4615;51.340;8.288;2023-08-07T11:38:39;5.97;;;3.50;;
9160;SDS011;4615;51.340;8.288;2023-08-07T11:41:08;8.10;;;3.92;;
9160;SDS011;4615;51.340;8.288;2023-08-07T11:43:34;5.63;;;3.13;;
9160;SDS011;4615;51.340;8.288;2023-08-07T11:46:01;5.78;;;3.53;;
9160;SDS011;4615;51.340;8.288;2023-08-07T11:48:28;8.17;;;3.93;;
9160;SDS011;4615;51.340;8.288;2023-08-07T11:50:55;4.97;;;3.50;;
9160;SDS011;4615;51.340;8.288;2023-08-07T11:53:22;6.20;;;3.95;;
9160;SDS011;4615;51.340;8.288;2023-08-07T11:55:53;7.95;;;3.92;;
9160;SDS011;4615;51.340;8.288;2023-08-07T11:58:21;8.93;;;4.07;;
9160;SDS011;4615;51.340;8.288;2023-08-07T12:00:48;6.70;;;3.95;;
9160;SDS011;4615;51.340;8.288;2023-08-07T12:03:24;7.77;;;4.00;;
9160;SDS011;4615;51.340;8.288;2023-08-07T12:05:51;6.38;;;3.60;;
9160;SDS011;4615;51.340;8.288;2023-08-07T12:08:18;4.95;;;3.80;;
9160;SDS011;4615;51.340;8.288;2023-08-07T12:10:46;7.13;;;3.72;;
9160;SDS011;4615;51.340;8.288;2023-08-07T12:13:15;7.05;;;3.60;;
9160;SDS011;4615;51.340;8.288;2023-08-07T12:15:42;6.70;;;3.40;;
9160;SDS011;4615;51.340;8.288;2023-08-07T12:18:08;5.95;;;3.17;;
9160;SDS011;4615;51.340;8.288;2023-08-07T12:20:37;5.97;;;3.20;;
9160;SDS011;4615;51.340;8.288;2023-08-07T12:23:03;6.15;;;3.50;;
9160;SDS011;4615;51.340;8.288;2023-08-07T12:25:29;6.00;;;3.25;;
9160;SDS011;4615;51.340;8.288;2023-08-07T12:27:56;4.85;;;3.10;;
9160;SDS011;4615;51.340;8.288;2023-08-07T12:30:23;6.07;;;3.72;;
9160;SDS011;4615;51.340;8.288;2023-08-07T12:32:50;6.33;;;3.40;;
9160;SDS011;4615;51.340;8.288;2023-08-07T12:35:17;7.13;;;3.65;;
9160;SDS011;4615;51.340;8.288;2023-08-07T12:37:43;8.03;;;3.60;;
9160;SDS011;4615;51.340;8.288;2023-08-07T12:40:10;7.18;;;2.70;;
9160;SDS011;4615;51.340;8.288;2023-08-07T12:42:36;6.30;;;2.95;;
9160;SDS011;4615;51.340;8.288;2023-08-07T12:45:03;21.05;;;5.55;;
9160;SDS011;4615;51.340;8.288;2023-08-07T12:47:30;5.78;;;2.90;;
9160;SDS011;4615;51.340;8.288;2023-08-07T12:49:57;6.45;;;3.00;;
9160;SDS011;4615;51.340;8.288;2023-08-07T12:52:25;5.25;;;3.17;;
9160;SDS011;4615;51.340;8.288;2023-08-07T12:54:51;7.30;;;3.33;;
9160;SDS011;4615;51.340;8.288;2023-08-07T12:57:17;8.18;;;3.20;;
9160;SDS011;4615;51.340;8.288;2023-08-07T12:59:44;9.70;;;3.72;;
9160;SDS011;4615;51.340;8.288;2023-08-07T13:02:10;5.70;;;3.15;;
9160;SDS011;4615;51.340;8.288;2023-08-07T13:04:38;5.63;;;3.25;;
9160;SDS011;4615;51.340;8.288;2023-08-07T13:07:04;5.13;;;2.88;;
9160;SDS011;4615;51.340;8.288;2023-08-07T13:09:31;7.63;;;3.15;;
9160;SDS011;4615;51.340;8.288;2023-08-07T13:11:57;6.40;;;3.15;;
9160;SDS011;4615;51.340;8.288;2023-08-07T13:14:23;6.18;;;3.20;;
9160;SDS011;4615;51.340;8.288;2023-08-07T13:16:50;9.32;;;3.53;;
9160;SDS011;4615;51.340;8.288;2023-08-07T13:19:17;8.07;;;3.40;;
9160;SDS011;4615;51.340;8.288;2023-08-07T13:21:44;5.85;;;3.00;;
9160;SDS011;4615;51.340;8.288;2023-08-07T13:24:11;8.17;;;3.33;;
9160;SDS011;4615;51.340;8.288;2023-08-07T13:26:38;6.03;;;3.13;;
9160;SDS011;4615;51.340;8.288;2023-08-07T13:29:09;5.90;;;3.10;;
9160;SDS011;4615;51.340;8.288;2023-08-07T13:31:36;6.72;;;3.00;;
9160;SDS011;4615;51.340;8.288;2023-08-07T13:34:02;6.82;;;3.20;;
9160;SDS011;4615;51.340;8.288;2023-08-07T13:36:33;4.97;;;2.70;;
9160;SDS011;4615;51.340;8.288;2023-08-07T13:39:01;6.68;;;3.20;;
9160;SDS011;4615;51.340;8.288;2023-08-07T13:41:27;7.70;;;3.00;;
9160;SDS011;4615;51.340;8.288;2023-08-07T13:43:54;8.03;;;3.07;;
9160;SDS011;4615;51.340;8.288;2023-08-07T13:46:20;7.00;;;2.78;;
9160;SDS011;4615;51.340;8.288;2023-08-07T13:48:47;6.13;;;2.47;;
9160;SDS011;4615;51.340;8.288;2023-08-07T13:51:13;6.30;;;2.65;;
9160;SDS011;4615;51.340;8.288;2023-08-07T13:53:40;5.78;;;2.90;;
9160;SDS011;4615;51.340;8.288;2023-08-07T13:56:07;5.55;;;2.95;;
9160;SDS011;4615;51.340;8.288;2023-08-07T13:58:36;6.22;;;2.80;;
9160;SDS011;4615;51.340;8.288;2023-08-07T14:01:02;5.17;;;2.60;;
9160;SDS011;4615;51.340;8.288;2023-08-07T14:03:30;4.88;;;2.70;;
9160;SDS011;4615;51.340;8.288;2023-08-07T14:05:56;6.53;;;2.72;;
9160;SDS011;4615;51.340;8.288;2023-08-07T14:08:23;5.22;;;2.80;;
9160;SDS011;4615;51.340;8.288;2023-08-07T14:10:49;5.13;;;2.72;;
9160;SDS011;4615;51.340;8.288;2023-08-07T14:13:17;8.00;;;3.00;;
9160;SDS011;4615;51.340;8.288;2023-08-07T14:15:43;6.10;;;2.65;;
9160;SDS011;4615;51.340;8.288;2023-08-07T14:18:09;4.78;;;2.90;;
9160;SDS011;4615;51.340;8.288;2023-08-07T14:20:37;4.32;;;2.35;;
9160;SDS011;4615;51.340;8.288;2023-08-07T14:23:03;6.10;;;2.50;;
9160;SDS011;4615;51.340;8.288;2023-08-07T14:25:29;4.50;;;2.40;;
9160;SDS011;4615;51.340;8.288;2023-08-07T14:27:55;5.43;;;2.70;;
9160;SDS011;4615;51.340;8.288;2023-08-07T14:30:23;3.90;;;2.40;;
9160;SDS011;4615;51.340;8.288;2023-08-07T14:32:50;4.60;;;2.33;;
9160;SDS011;4615;51.340;8.288;2023-08-07T14:35:16;5.03;;;2.50;;
9160;SDS011;4615;51.340;8.288;2023-08-07T14:37:43;5.28;;;2.50;;
9160;SDS011;4615;51.340;8.288;2023-08-07T14:40:10;6.20;;;2.40;;
9160;SDS011;4615;51.340;8.288;2023-08-07T14:42:36;4.53;;;2.43;;
9160;SDS011;4615;51.340;8.288;2023-08-07T14:45:03;4.07;;;2.47;;
9160;SDS011;4615;51.340;8.288;2023-08-07T14:47:31;6.50;;;2.47;;
9160;SDS011;4615;51.340;8.288;2023-08-07T14:49:57;6.90;;;2.70;;
9160;SDS011;4615;51.340;8.288;2023-08-07T14:52:23;4.43;;;2.40;;
9160;SDS011;4615;51.340;8.288;2023-08-07T14:54:50;4.50;;;2.63;;
9160;SDS011;4615;51.340;8.288;2023-08-07T14:57:18;6.65;;;2.38;;
9160;SDS011;4615;51.340;8.288;2023-08-07T14:59:44;5.38;;;2.50;;
9160;SDS011;4615;51.340;8.288;2023-08-07T15:02:10;5.80;;;2.40;;
9160;SDS011;4615;51.340;8.288;2023-08-07T15:04:38;5.05;;;2.75;;
9160;SDS011;4615;51.340;8.288;2023-08-07T15:07:05;3.63;;;2.38;;
9160;SDS011;4615;51.340;8.288;2023-08-07T15:09:33;5.40;;;2.50;;
9160;SDS011;4615;51.340;8.288;2023-08-07T15:11:59;4.30;;;2.40;;
9160;SDS011;4615;51.340;8.288;2023-08-07T15:14:26;5.83;;;2.63;;